Time;durP1;ratioP1;P1;durP2;ratioP2;P2;SDS_P1;SDS_P2;PMS_P1;PMS_P2;Temp;Humidity;BMP_temperature;BMP_pressure;BME280_temperature;BME280_humidity;BME280_pressure;Samples;Min_cycle;Max_cycle;Signal;HPM_P1;HPM_P2
2024/04/17 00:00:43;;;;;;;3.20;1.10;;;;;;;9.81;77.04;97851.73;107318;1261;60456;-38
2024/04/17 00:03:11;;;;;;;1.40;1.30;;;;;;;9.57;77.79;97844.03;107292;1259;61237;-38
2024/04/17 00:05:37;;;;;;;2.60;1.00;;;;;;;9.38;78.70;97834.79;107317;1260;75271;-38
2024/04/17 00:08:05;;;;;;;2.70;1.10;;;;;;;9.27;79.22;97848.23;107233;1257;68173;-38
2024/04/17 00:10:32;;;;;;;2.70;1.50;;;;;;;9.20;79.57;97860.90;107303;1257;72643;-38
2024/04/17 00:12:59;;;;;;;1.60;1.00;;;;;;;9.13;79.90;97894.58;107195;1257;60444;-38
2024/04/17 00:15:25;;;;;;;1.80;1.10;;;;;;;9.07;80.15;97894.66;107348;1257;61215;-38
2024/04/17 00:17:52;;;;;;;6.20;1.30;;;;;;;9.01;80.09;97889.17;107254;1257;73956;-38
2024/04/17 00:20:19;;;;;;;4.00;1.20;;;;;;;8.99;80.11;97910.63;107263;1257;68387;-38
2024/04/17 00:22:46;;;;;;;2.50;1.20;;;;;;;8.99;79.88;97951.50;107241;1257;71229;-38
2024/04/17 00:25:12;;;;;;;1.90;1.30;;;;;;;8.93;80.07;97984.98;107271;1257;61362;-38
2024/04/17 00:27:39;;;;;;;4.00;1.60;;;;;;;8.83;80.53;97914.84;107223;1257;61164;-38
2024/04/17 00:30:07;;;;;;;3.70;1.30;;;;;;;8.80;81.26;97848.77;107152;1257;75208;-38
2024/04/17 00:32:33;;;;;;;2.50;1.10;;;;;;;8.84;81.58;97828.77;107176;1257;67524;-38
2024/04/17 00:35:00;;;;;;;3.90;1.30;;;;;;;8.87;81.46;97839.95;107275;1258;73036;-38
2024/04/17 00:37:27;;;;;;;2.10;1.00;;;;;;;8.86;81.57;97855.33;107184;1257;61458;-38
2024/04/17 00:39:54;;;;;;;1.90;1.10;;;;;;;8.83;81.71;97858.94;106438;1257;1003039;-38
2024/04/17 00:42:21;;;;;;;4.00;1.30;;;;;;;8.79;81.62;97868.44;107272;1257;74955;-38
2024/04/17 00:44:48;;;;;;;3.70;1.50;;;;;;;8.78;81.90;97861.55;107182;1257;68399;-38
2024/04/17 00:47:14;;;;;;;1.90;1.20;;;;;;;8.83;81.88;97832.23;107206;1261;73351;-38
2024/04/17 00:49:42;;;;;;;4.10;1.30;;;;;;;8.83;82.05;97783.75;107260;1257;61355;-38
2024/04/17 00:52:08;;;;;;;3.80;1.00;;;;;;;8.71;82.30;97790.70;107292;1257;61132;-38
2024/04/17 00:54:35;;;;;;;4.70;1.20;;;;;;;8.62;82.83;97793.30;107254;1257;75306;-38
2024/04/17 00:57:03;;;;;;;1.40;0.90;;;;;;;8.52;83.27;97777.70;107244;1257;68404;-38
2024/04/17 00:59:30;;;;;;;3.20;1.20;;;;;;;8.64;83.33;97784.66;107235;1257;72448;-38
2024/04/17 01:01:57;;;;;;;2.80;1.10;;;;;;;8.68;83.41;97794.70;107235;1257;61132;-38
2024/04/17 01:04:27;;;;;;;2.10;1.20;;;;;;;8.67;83.62;97796.77;107293;1257;60286;-38
2024/04/17 01:06:54;;;;;;;5.90;1.30;;;;;;;8.66;83.84;97833.60;107285;1257;75163;-38
2024/04/17 01:09:22;;;;;;;1.70;1.20;;;;;;;8.66;83.59;97837.08;107261;1257;66785;-38
2024/04/17 01:11:48;;;;;;;1.70;0.90;;;;;;;8.70;83.59;97843.56;107283;1257;72522;-38
2024/04/17 01:14:15;;;;;;;2.50;1.20;;;;;;;8.77;83.29;97849.52;107254;1257;61224;-38
2024/04/17 01:16:42;;;;;;;2.80;1.00;;;;;;;8.77;83.10;97848.22;107280;1257;60899;-38
2024/04/17 01:19:09;;;;;;;3.80;1.30;;;;;;;8.73;83.39;97844.65;107260;1257;75340;-38
2024/04/17 01:21:36;;;;;;;2.30;1.10;;;;;;;8.74;83.64;97834.08;107375;1257;67605;-38
2024/04/17 01:24:03;;;;;;;3.80;1.00;;;;;;;8.79;83.33;97847.27;107218;1257;73293;-38
2024/04/17 01:26:30;;;;;;;2.80;1.20;;;;;;;8.83;83.08;97848.83;107219;1259;61338;-38
2024/04/17 01:28:57;;;;;;;2.10;1.00;;;;;;;8.80;82.99;97837.87;107255;1256;60395;-38
2024/04/17 01:31:24;;;;;;;3.00;1.40;;;;;;;8.71;83.00;97822.48;107179;1257;74954;-38
2024/04/17 01:33:50;;;;;;;3.80;1.30;;;;;;;8.63;83.28;97810.05;107150;1257;66706;-38
2024/04/17 01:36:17;;;;;;;4.50;1.40;;;;;;;8.63;83.39;97790.98;107150;1261;73053;-38
2024/04/17 01:38:45;;;;;;;2.00;1.20;;;;;;;8.66;83.33;97778.03;107252;1257;60132;-38
2024/04/17 01:41:11;;;;;;;1.30;1.10;;;;;;;8.61;83.52;97777.02;107188;1257;60382;-38
2024/04/17 01:43:38;;;;;;;2.70;1.50;;;;;;;8.55;83.62;97755.55;107206;1257;74950;-38
2024/04/17 01:46:06;;;;;;;2.50;1.40;;;;;;;8.45;83.46;97737.95;107246;1261;67773;-38
2024/04/17 01:48:32;;;;;;;1.80;1.20;;;;;;;8.38;83.57;97735.25;107233;1257;72966;-37
2024/04/17 01:50:59;;;;;;;1.40;1.20;;;;;;;8.34;83.82;97741.71;107250;1258;61138;-37
2024/04/17 01:53:26;;;;;;;3.30;1.40;;;;;;;8.29;84.25;97754.65;107213;1256;61202;-37
2024/04/17 01:55:53;;;;;;;1.90;1.20;;;;;;;8.25;84.57;97771.21;107253;1261;75166;-37
2024/04/17 01:58:20;;;;;;;4.00;1.30;;;;;;;8.23;84.66;97781.55;107262;1257;67826;-37
2024/04/17 02:00:47;;;;;;;5.70;1.10;;;;;;;8.26;84.58;97782.86;107285;1257;71942;-37
2024/04/17 02:03:14;;;;;;;2.60;1.30;;;;;;;8.30;84.38;97780.20;107252;1257;61160;-37
2024/04/17 02:05:43;;;;;;;3.20;1.20;;;;;;;8.27;84.26;97778.40;107246;1262;62749;-37
2024/04/17 02:08:10;;;;;;;2.80;1.40;;;;;;;8.23;84.49;97784.23;107270;1257;74521;-37
2024/04/17 02:10:37;;;;;;;3.40;1.30;;;;;;;8.17;84.86;97782.06;107323;1257;68101;-38
2024/04/17 02:13:04;;;;;;;3.60;1.20;;;;;;;8.29;84.55;97787.45;107204;1263;72694;-38
2024/04/17 02:15:32;;;;;;;1.90;1.20;;;;;;;8.33;83.76;97795.02;107238;1262;61355;-38
2024/04/17 02:17:58;;;;;;;2.50;1.20;;;;;;;8.28;83.47;97800.23;107256;1258;61246;-38
2024/04/17 02:20:25;;;;;;;3.20;1.20;;;;;;;8.23;83.52;97803.52;107268;1257;75190;-38
2024/04/17 02:22:52;;;;;;;2.20;0.80;;;;;;;8.18;83.54;97812.69;107267;1260;65617;-38
2024/04/17 02:25:19;;;;;;;1.60;0.90;;;;;;;8.22;83.46;97819.88;107180;1257;73057;-38
2024/04/17 02:27:46;;;;;;;2.20;1.10;;;;;;;8.23;83.31;97814.81;107177;1257;61234;-38
2024/04/17 02:30:13;;;;;;;1.50;1.00;;;;;;;8.31;83.20;97823.03;107251;1257;61462;-38
2024/04/17 02:32:39;;;;;;;2.80;1.10;;;;;;;8.31;83.04;97813.67;107262;1258;75054;-38
2024/04/17 02:35:06;;;;;;;2.90;1.10;;;;;;;8.27;82.71;97821.13;107251;1257;68545;-38
2024/04/17 02:37:33;;;;;;;2.60;1.10;;;;;;;8.26;82.78;97825.91;107315;1257;73191;-38
2024/04/17 02:40:00;;;;;;;0.90;0.80;;;;;;;8.35;82.68;97825.50;107262;1259;61683;-39
2024/04/17 02:42:27;;;;;;;1.60;1.20;;;;;;;8.39;82.27;97814.02;107258;1257;61259;-38
2024/04/17 02:44:53;;;;;;;2.00;1.20;;;;;;;8.38;82.15;97805.52;107252;1257;75248;-38
2024/04/17 02:47:20;;;;;;;2.20;1.00;;;;;;;8.34;82.29;97800.42;107253;1257;68263;-38
2024/04/17 02:49:47;;;;;;;2.30;0.90;;;;;;;8.34;82.33;97809.52;107285;1257;73039;-38
2024/04/17 02:52:14;;;;;;;2.20;0.80;;;;;;;8.37;81.97;97819.41;107278;1257;61661;-38
2024/04/17 02:54:41;;;;;;;5.80;1.20;;;;;;;8.43;81.76;97838.71;107260;1258;60300;-39
2024/04/17 02:57:08;;;;;;;1.70;0.90;;;;;;;8.44;81.72;97844.73;107248;1258;75180;-38
2024/04/17 02:59:34;;;;;;;3.40;1.00;;;;;;;8.41;81.62;97845.20;107280;1257;67805;-38
2024/04/17 03:02:01;;;;;;;2.30;1.10;;;;;;;8.41;81.75;97846.04;107286;1262;73190;-38
2024/04/17 03:04:28;;;;;;;2.50;1.10;;;;;;;8.41;81.43;97846.05;107231;1257;61756;-38
2024/04/17 03:06:55;;;;;;;2.60;1.10;;;;;;;8.42;80.96;97862.95;107284;1262;61220;-38
2024/04/17 03:09:22;;;;;;;1.60;1.00;;;;;;;8.43;80.79;97878.14;107237;1261;75292;-38
2024/04/17 03:11:49;;;;;;;1.20;1.00;;;;;;;8.44;80.78;97885.39;107230;1261;68513;-38
2024/04/17 03:14:16;;;;;;;2.80;1.00;;;;;;;8.42;80.80;97893.18;107299;1257;73228;-37
2024/04/17 03:16:43;;;;;;;1.70;0.90;;;;;;;8.40;80.62;97901.42;107228;1256;61249;-37
2024/04/17 03:19:10;;;;;;;1.50;0.80;;;;;;;8.35;80.29;97908.20;107211;1257;60921;-37
2024/04/17 03:21:36;;;;;;;1.70;0.70;;;;;;;8.38;80.50;97921.02;107247;1263;75142;-37
2024/04/17 03:24:05;;;;;;;4.10;1.20;;;;;;;8.46;80.34;97930.85;107162;1257;68547;-37
2024/04/17 03:26:31;;;;;;;1.80;1.10;;;;;;;8.46;80.29;97934.87;107228;1260;72663;-37
2024/04/17 03:28:58;;;;;;;1.30;1.00;;;;;;;8.41;79.92;97935.31;107227;1260;60449;-37
2024/04/17 03:31:25;;;;;;;0.90;0.80;;;;;;;8.35;80.18;97931.27;107303;1262;61327;-37
2024/04/17 03:33:51;;;;;;;5.20;1.10;;;;;;;8.30;80.35;97923.99;107274;1263;75118;-37
2024/04/17 03:36:18;;;;;;;2.20;1.00;;;;;;;8.30;80.50;97919.35;107314;1257;67708;-37
2024/04/17 03:38:45;;;;;;;2.20;1.20;;;;;;;8.36;80.59;97908.52;107255;1262;73173;-37
2024/04/17 03:41:12;;;;;;;2.00;1.10;;;;;;;8.37;80.68;97896.79;107258;1262;61426;-37
2024/04/17 03:43:38;;;;;;;1.70;1.20;;;;;;;8.32;80.84;97885.66;107234;1257;60379;-37
2024/04/17 03:46:05;;;;;;;5.10;1.50;;;;;;;8.24;80.96;97883.52;107270;1257;75028;-37
2024/04/17 03:48:32;;;;;;;2.40;1.20;;;;;;;8.20;81.02;97868.31;107237;1261;68503;-37
2024/04/17 03:50:59;;;;;;;2.90;1.20;;;;;;;8.22;80.98;97858.83;107240;1261;73220;-38
2024/04/17 03:53:26;;;;;;;2.20;1.20;;;;;;;8.24;81.07;97859.98;107213;1256;61165;-38
2024/04/17 03:55:53;;;;;;;2.30;1.20;;;;;;;8.21;81.06;97867.86;107325;1257;60128;-38
2024/04/17 03:58:20;;;;;;;2.30;1.40;;;;;;;8.18;81.48;97875.23;107271;1257;75165;-38
2024/04/17 04:00:47;;;;;;;2.70;1.40;;;;;;;8.16;81.66;97864.05;107277;1262;67971;-38
2024/04/17 04:03:14;;;;;;;2.00;1.10;;;;;;;8.15;81.65;97853.41;107196;1262;73421;-38
2024/04/17 04:05:44;;;;;;;2.10;1.10;;;;;;;8.21;81.53;97843.93;107272;1260;61761;-38
2024/04/17 04:08:11;;;;;;;1.90;1.30;;;;;;;8.21;81.60;97836.62;107260;1262;61141;-38
2024/04/17 04:10:38;;;;;;;1.90;1.00;;;;;;;8.12;81.75;97823.94;107238;1257;75336;-38
2024/04/17 04:13:05;;;;;;;3.90;1.20;;;;;;;8.14;81.92;97828.17;107161;1260;68547;-38
2024/04/17 04:15:33;;;;;;;1.10;1.00;;;;;;;8.11;81.99;97830.64;107214;1257;72498;-38
2024/04/17 04:18:00;;;;;;;1.80;1.20;;;;;;;8.12;81.66;97837.96;107215;1263;61721;-38
2024/04/17 04:20:26;;;;;;;2.60;1.10;;;;;;;8.15;81.61;97838.45;107269;1262;61569;-38
2024/04/17 04:22:53;;;;;;;2.40;1.20;;;;;;;8.14;81.76;97842.91;107290;1257;75225;-38
2024/04/17 04:25:20;;;;;;;1.80;1.30;;;;;;;8.10;82.03;97839.58;107218;1260;67085;-38
2024/04/17 04:27:47;;;;;;;2.50;1.10;;;;;;;8.11;82.43;97836.41;107282;1257;72678;-38
2024/04/17 04:30:14;;;;;;;2.00;1.30;;;;;;;8.17;82.49;97831.73;107248;1262;61688;-38
2024/04/17 04:32:40;;;;;;;1.90;1.30;;;;;;;8.24;82.01;97822.19;107259;1257;60465;-38
2024/04/17 04:35:07;;;;;;;1.40;1.10;;;;;;;8.25;82.22;97818.89;107309;1258;75157;-38
2024/04/17 04:37:34;;;;;;;3.90;1.50;;;;;;;8.24;82.29;97821.19;107310;1263;67932;-38
2024/04/17 04:40:01;;;;;;;2.20;1.30;;;;;;;8.23;82.15;97826.81;107279;1262;73197;-37
2024/04/17 04:42:28;;;;;;;2.90;1.20;;;;;;;8.22;81.89;97833.30;107260;1262;61835;-37
2024/04/17 04:44:54;;;;;;;1.70;1.30;;;;;;;8.27;81.79;97831.63;107258;1257;61260;-37
2024/04/17 04:47:21;;;;;;;1.80;1.40;;;;;;;8.31;81.66;97832.20;107277;1257;75203;-37
2024/04/17 04:49:48;;;;;;;1.80;1.10;;;;;;;8.30;81.65;97830.79;107315;1261;68506;-37
2024/04/17 04:52:15;;;;;;;2.40;1.40;;;;;;;8.29;81.73;97832.16;107268;1258;73103;-37
2024/04/17 04:54:42;;;;;;;2.70;1.10;;;;;;;8.28;81.41;97832.46;107209;1258;60686;-37
2024/04/17 04:57:09;;;;;;;4.00;1.50;;;;;;;8.32;81.17;97826.33;107277;1257;60268;-38
2024/04/17 04:59:36;;;;;;;3.10;1.40;;;;;;;8.39;81.01;97821.17;107224;1257;75095;-38
2024/04/17 05:02:03;;;;;;;3.80;1.30;;;;;;;8.38;81.04;97823.58;107079;1260;154445;-38
2024/04/17 05:05:52;;;;;;;1.90;1.30;;;;;;;8.41;81.38;97827.13;104171;1292;600125;-37
2024/04/17 05:08:19;;;;;;;2.40;1.50;;;;;;;8.41;81.08;97826.06;106618;1266;61770;-37
2024/04/17 05:10:46;;;;;;;3.60;1.50;;;;;;;8.47;80.99;97836.95;106635;1267;59567;-37
2024/04/17 05:13:14;;;;;;;2.70;1.30;;;;;;;8.55;80.78;97841.61;106663;1272;73124;-37
2024/04/17 05:15:41;;;;;;;2.40;1.50;;;;;;;8.56;80.72;97844.08;106673;1272;67619;-37
2024/04/17 05:18:09;;;;;;;2.40;1.70;;;;;;;8.58;80.82;97841.61;106654;1265;72725;-37
2024/04/17 05:20:37;;;;;;;3.20;1.70;;;;;;;8.59;80.85;97843.63;106789;1260;146727;-37
2024/04/17 05:23:05;;;;;;;2.80;1.40;;;;;;;8.57;80.68;97849.55;106895;1266;59525;-37
2024/04/17 05:25:32;;;;;;;2.80;1.50;;;;;;;8.60;80.44;97855.52;106986;1266;71206;-38
2024/04/17 05:28:00;;;;;;;2.20;1.60;;;;;;;8.62;80.40;97857.35;106884;1266;68109;-38
2024/04/17 05:30:29;;;;;;;3.10;1.50;;;;;;;8.62;80.49;97860.37;106865;1261;71641;-38
2024/04/17 05:32:56;;;;;;;5.70;1.90;;;;;;;8.61;80.61;97862.99;106831;1264;60540;-38
2024/04/17 05:35:24;;;;;;;3.40;1.80;;;;;;;8.64;80.47;97870.41;107025;1260;60377;-38
2024/04/17 05:37:52;;;;;;;4.50;1.90;;;;;;;8.63;80.33;97873.27;106858;1265;71601;-38
2024/04/17 05:40:20;;;;;;;2.80;1.50;;;;;;;8.70;80.10;97877.77;106904;1260;67609;-38
2024/04/17 05:42:47;;;;;;;2.90;1.60;;;;;;;8.75;79.95;97882.25;106869;1266;73244;-37
2024/04/17 05:45:15;;;;;;;2.30;1.90;;;;;;;8.81;80.16;97888.36;106886;1266;60556;-37
2024/04/17 05:47:42;;;;;;;2.30;1.70;;;;;;;8.84;80.28;97889.60;106995;1266;60325;-37
2024/04/17 05:50:09;;;;;;;4.50;2.20;;;;;;;8.88;80.42;97889.60;106803;1266;73873;-37
2024/04/17 05:52:37;;;;;;;3.00;1.70;;;;;;;8.92;79.96;97891.84;106763;1261;67698;-38
2024/04/17 05:55:05;;;;;;;4.30;1.70;;;;;;;8.98;79.78;97895.19;106802;1261;72783;-37
2024/04/17 05:57:33;;;;;;;7.10;2.40;;;;;;;9.05;79.50;97893.64;106901;1260;60018;-37
2024/04/17 06:00:00;;;;;;;3.40;2.30;;;;;;;9.04;79.51;97891.27;106811;1260;60284;-38
2024/04/17 06:02:30;;;;;;;5.90;2.40;;;;;;;9.05;79.77;97904.32;106828;1260;72949;-38
2024/04/17 06:04:58;;;;;;;3.40;2.40;;;;;;;9.03;79.62;97913.34;106213;1265;1003605;-38
2024/04/17 06:07:26;;;;;;;3.50;2.40;;;;;;;9.02;79.65;97924.38;106868;1266;72703;-38
2024/04/17 06:09:53;;;;;;;4.70;2.00;;;;;;;9.01;78.93;97925.94;106825;1265;60534;-38
2024/04/17 06:12:21;;;;;;;3.90;1.80;;;;;;;8.96;78.95;97918.34;106881;1260;60434;-38
2024/04/17 06:14:49;;;;;;;3.00;1.80;;;;;;;8.95;79.57;97921.05;106951;1261;74015;-38
2024/04/17 06:17:16;;;;;;;3.20;1.80;;;;;;;8.95;79.60;97930.86;106904;1263;68509;-38
2024/04/17 06:19:44;;;;;;;3.20;1.60;;;;;;;8.90;79.66;97942.59;106853;1264;71452;-38
2024/04/17 06:22:13;;;;;;;2.40;1.00;;;;;;;8.89;79.63;97946.67;106891;1261;61773;-38
2024/04/17 06:24:41;;;;;;;3.10;2.00;;;;;;;8.87;79.54;97952.07;106912;1266;60345;-38
2024/04/17 06:27:08;;;;;;;5.00;2.00;;;;;;;8.92;79.79;97962.36;106866;1261;73056;-38
2024/04/17 06:29:35;;;;;;;3.30;2.00;;;;;;;8.92;79.48;97963.75;106867;1260;66926;-38
2024/04/17 06:32:03;;;;;;;2.30;1.60;;;;;;;8.83;79.56;97969.50;106889;1266;72645;-38
2024/04/17 06:34:31;;;;;;;4.00;1.80;;;;;;;8.77;79.92;97973.20;106880;1264;60431;-38
2024/04/17 06:36:59;;;;;;;2.50;1.80;;;;;;;8.70;79.97;97978.03;106905;1261;60354;-38
2024/04/17 06:39:26;;;;;;;2.50;1.50;;;;;;;8.70;79.98;97980.96;106799;1260;73960;-38
2024/04/17 06:41:55;;;;;;;5.00;1.60;;;;;;;8.77;80.06;97988.41;106799;1263;68041;-38
2024/04/17 06:44:29;;;;;;;2.50;1.90;;;;;;;8.80;80.16;97997.84;106870;1261;70953;-38
2024/04/17 06:46:57;;;;;;;2.60;1.90;;;;;;;8.76;80.17;98000.52;106763;1267;59367;-38
2024/04/17 06:49:26;;;;;;;3.70;2.20;;;;;;;8.75;80.55;98002.30;106838;1266;60554;-38
2024/04/17 06:51:54;;;;;;;4.00;1.80;;;;;;;8.76;80.64;98002.98;106947;1260;72663;-38
2024/04/17 06:54:21;;;;;;;2.50;1.50;;;;;;;8.78;80.68;97998.44;106848;1266;67734;-38
2024/04/17 06:56:49;;;;;;;3.10;2.00;;;;;;;8.80;80.64;98000.30;106862;1261;72783;-37
2024/04/17 06:59:16;;;;;;;5.50;2.40;;;;;;;8.77;81.20;97999.14;106886;1263;60455;-37
2024/04/17 07:01:44;;;;;;;2.30;1.90;;;;;;;8.81;81.70;98009.34;106983;1267;61090;-37
2024/04/17 07:04:12;;;;;;;6.20;2.20;;;;;;;8.87;81.84;98008.98;106878;1260;72670;-37
2024/04/17 07:06:40;;;;;;;2.60;1.90;;;;;;;8.95;81.29;98010.39;106895;1260;66957;-37
2024/04/17 07:09:08;;;;;;;2.90;1.90;;;;;;;9.02;81.04;98016.06;106849;1264;73107;-37
2024/04/17 07:11:35;;;;;;;3.70;1.90;;;;;;;9.08;81.14;98015.77;106829;1261;60415;-37
2024/04/17 07:14:03;;;;;;;4.30;2.20;;;;;;;9.12;81.06;98017.41;106873;1262;60208;-37
2024/04/17 07:16:30;;;;;;;4.10;2.10;;;;;;;9.13;80.96;98017.41;106906;1261;73961;-38
2024/04/17 07:18:59;;;;;;;2.30;2.10;;;;;;;9.14;80.84;98010.39;106873;1266;66837;-37
2024/04/17 07:21:27;;;;;;;1.70;1.30;;;;;;;9.13;79.57;98008.53;107021;1263;71479;-39
2024/04/17 07:23:56;;;;;;;2.10;1.80;;;;;;;9.11;79.26;98007.82;106850;1261;60342;-38
2024/04/17 07:26:23;;;;;;;3.70;2.00;;;;;;;9.09;79.30;98001.72;106905;1266;60553;-37
2024/04/17 07:28:51;;;;;;;2.40;1.70;;;;;;;9.07;79.37;97990.58;106870;1266;73961;-37
2024/04/17 07:31:18;;;;;;;2.50;2.00;;;;;;;9.03;78.56;97981.39;106820;1261;66878;-39
2024/04/17 07:33:49;;;;;;;3.50;1.80;;;;;;;9.00;78.73;97969.95;106751;1266;74836;-36
2024/04/17 07:36:17;;;;;;;3.20;1.70;;;;;;;9.02;78.84;97969.65;106794;1264;61800;-37
2024/04/17 07:38:47;;;;;;;3.20;2.00;;;;;;;9.03;78.79;97968.80;106785;1260;60616;-37
2024/04/17 07:41:14;;;;;;;4.50;1.90;;;;;;;9.02;79.08;97976.05;106835;1261;72622;-37
2024/04/17 07:43:46;;;;;;;3.70;1.90;;;;;;;8.99;78.58;97978.05;106875;1260;67809;-37
2024/04/17 07:46:14;;;;;;;2.40;1.90;;;;;;;8.95;78.32;97975.19;106876;1264;71529;-37
2024/04/17 07:48:41;;;;;;;4.00;1.90;;;;;;;8.89;77.23;97970.23;107088;1257;60398;-37
2024/04/17 07:51:09;;;;;;;2.90;1.90;;;;;;;8.83;77.22;97969.50;107056;1263;60279;-37
2024/04/17 07:53:36;;;;;;;5.00;1.70;;;;;;;8.85;76.93;97971.67;107027;1263;72593;-38
2024/04/17 07:56:05;;;;;;;2.10;1.80;;;;;;;8.86;76.87;97969.66;107082;1257;66810;-37
2024/04/17 07:58:32;;;;;;;2.30;1.80;;;;;;;8.80;77.25;97969.27;107081;1260;72876;-38
2024/04/17 08:01:00;;;;;;;3.10;2.00;;;;;;;8.77;77.64;97964.23;107048;1257;60540;-37
2024/04/17 08:03:28;;;;;;;3.50;2.20;;;;;;;8.76;77.71;97960.84;107101;1257;60520;-38
2024/04/17 08:05:55;;;;;;;3.70;2.00;;;;;;;8.74;77.89;97956.21;107071;1257;73918;-37
2024/04/17 08:08:23;;;;;;;4.10;1.70;;;;;;;8.81;78.00;97955.22;107065;1258;68169;-37
2024/04/17 08:10:50;;;;;;;2.70;1.60;;;;;;;8.87;78.19;97952.15;107068;1257;72752;-38
2024/04/17 08:13:18;;;;;;;3.10;2.20;;;;;;;8.87;78.74;97950.83;107049;1258;60703;-37
2024/04/17 08:15:49;;;;;;;5.70;2.20;;;;;;;8.86;79.34;97951.59;107252;1257;60425;-37
2024/04/17 08:18:16;;;;;;;3.60;1.90;;;;;;;8.91;80.17;97954.48;107042;1262;71998;-38
2024/04/17 08:20:44;;;;;;;5.20;2.10;;;;;;;9.02;79.85;97949.33;107042;1257;67750;-38
2024/04/17 08:23:12;;;;;;;3.50;2.10;;;;;;;9.11;79.29;97949.73;107076;1260;72749;-38
2024/04/17 08:25:39;;;;;;;5.60;2.00;;;;;;;9.11;78.81;97949.50;107217;1257;60637;-38
2024/04/17 08:28:07;;;;;;;3.00;1.90;;;;;;;9.05;78.34;97945.55;107027;1258;60322;-38
2024/04/17 08:30:34;;;;;;;2.70;2.10;;;;;;;8.99;78.49;97947.70;106977;1257;73977;-38
2024/04/17 08:33:02;;;;;;;2.00;1.70;;;;;;;8.97;78.79;97946.69;107163;1257;67759;-38
2024/04/17 08:35:30;;;;;;;2.40;1.50;;;;;;;9.01;78.81;97951.96;107110;1257;71513;-38
2024/04/17 08:37:57;;;;;;;2.60;1.70;;;;;;;9.01;77.74;97956.43;107070;1260;60543;-38
2024/04/17 08:40:25;;;;;;;3.50;2.10;;;;;;;8.94;77.38;97950.77;107081;1257;60338;-38
2024/04/17 08:42:52;;;;;;;3.20;1.80;;;;;;;8.89;77.72;97949.84;107086;1257;72624;-38
2024/04/17 08:45:36;;;;;;;4.20;2.30;;;;;;;8.87;77.72;97948.98;106984;1257;66250;-38
2024/04/17 08:48:16;;;;;;;7.10;2.00;;;;;;;8.81;77.55;97948.20;107080;1260;71428;-38
2024/04/17 08:50:45;;;;;;;2.70;1.90;;;;;;;8.85;78.04;97942.11;107029;1257;60317;-38
2024/04/17 08:53:17;;;;;;;2.30;1.90;;;;;;;8.89;78.17;97943.29;107241;1257;60965;-38
2024/04/17 08:55:45;;;;;;;3.90;2.60;;;;;;;8.88;78.82;97945.81;107080;1263;73945;-38
2024/04/17 08:58:12;;;;;;;5.50;2.90;;;;;;;8.90;79.57;97946.98;107116;1257;66905;-38
2024/04/17 09:00:40;;;;;;;8.90;2.60;;;;;;;8.95;79.48;97946.38;107043;1257;72312;-38
2024/04/17 09:03:09;;;;;;;4.50;2.30;;;;;;;9.02;79.05;97941.76;107085;1257;61740;-38
2024/04/17 09:05:36;;;;;;;3.00;2.00;;;;;;;9.08;78.31;97938.46;107126;1257;62181;-38
2024/04/17 09:08:04;;;;;;;3.30;2.20;;;;;;;9.08;78.65;97939.84;107090;1258;72674;-38
2024/04/17 09:10:32;;;;;;;2.50;1.90;;;;;;;9.09;78.86;97941.39;107076;1257;66820;-38
2024/04/17 09:12:59;;;;;;;3.70;2.00;;;;;;;9.10;78.76;97941.54;107092;1261;72361;-38
2024/04/17 09:15:27;;;;;;;4.30;1.70;;;;;;;9.14;78.58;97941.09;107035;1257;61114;-38
2024/04/17 09:17:55;;;;;;;3.40;2.00;;;;;;;9.21;78.14;97942.64;107070;1257;61265;-38
2024/04/17 09:20:23;;;;;;;2.40;2.20;;;;;;;9.18;77.91;97939.02;107060;1257;73532;-37
2024/04/17 09:22:55;;;;;;;4.60;2.00;;;;;;;9.14;78.44;97943.86;107024;1257;66751;-37
2024/04/17 09:25:22;;;;;;;2.90;1.90;;;;;;;9.13;78.72;97948.74;107025;1260;72717;-38
2024/04/17 09:27:50;;;;;;;3.70;1.70;;;;;;;9.20;78.59;97953.84;106979;1263;61766;-37
2024/04/17 09:30:18;;;;;;;2.90;2.10;;;;;;;9.26;77.77;97958.25;106269;1258;1003000;-37
2024/04/17 09:32:46;;;;;;;2.60;2.00;;;;;;;9.22;76.72;97956.41;107090;1257;74819;-37
2024/04/17 09:35:14;;;;;;;9.00;2.40;;;;;;;9.17;76.69;97965.58;107035;1257;67074;-37
2024/04/17 09:37:42;;;;;;;5.70;2.50;;;;;;;9.11;76.96;97963.56;107056;1257;70675;-37
2024/04/17 09:40:10;;;;;;;3.00;2.30;;;;;;;9.09;77.38;97967.51;107035;1260;61782;-38
2024/04/17 09:42:41;;;;;;;2.50;1.80;;;;;;;9.18;77.59;97971.99;107090;1257;61171;-37
2024/04/17 09:45:14;;;;;;;3.50;2.20;;;;;;;9.28;77.53;97975.33;107225;1257;73781;-38
2024/04/17 09:47:45;;;;;;;4.40;2.50;;;;;;;9.29;76.93;97980.67;107075;1262;67715;-37
2024/04/17 09:50:21;;;;;;;5.30;2.60;;;;;;;9.28;76.77;97980.67;107048;1262;71506;-37
2024/04/17 09:52:52;;;;;;;7.40;2.50;;;;;;;9.24;76.77;97983.67;107091;1260;61210;-37
2024/04/17 09:55:22;;;;;;;5.90;2.20;;;;;;;9.19;76.48;97981.05;107089;1257;61340;-37
2024/04/17 09:57:50;;;;;;;6.00;2.30;;;;;;;9.21;76.62;97986.29;107051;1257;74741;-38
2024/04/17 10:00:22;;;;;;;3.70;2.80;;;;;;;9.25;76.72;97987.53;107064;1262;67269;-38
2024/04/17 10:02:49;;;;;;;9.50;2.30;;;;;;;9.25;77.37;97985.06;107058;1257;72781;-38
2024/04/17 10:05:17;;;;;;;6.60;2.90;;;;;;;9.27;77.90;97986.84;107092;1259;61310;-38
2024/04/17 10:07:45;;;;;;;3.60;2.30;;;;;;;9.31;77.70;97991.02;107094;1257;61226;-38
2024/04/17 10:10:15;;;;;;;6.70;2.40;;;;;;;9.34;77.03;97990.88;107084;1264;73478;-38
2024/04/17 10:12:46;;;;;;;5.30;2.70;;;;;;;9.38;77.14;97984.78;107239;1257;67718;-38
2024/04/17 10:15:13;;;;;;;5.40;2.80;;;;;;;9.40;77.33;97988.48;107101;1257;73063;-38
2024/04/17 10:17:41;;;;;;;3.80;2.80;;;;;;;9.41;75.42;97988.50;107109;1257;60883;-38
2024/04/17 10:20:28;;;;;;;5.80;2.30;;;;;;;9.37;75.55;97983.31;107049;1257;61253;-38
2024/04/17 10:23:06;;;;;;;3.40;2.60;;;;;;;9.42;75.32;97982.61;107031;1257;73446;-38
2024/04/17 10:25:34;;;;;;;5.50;2.50;;;;;;;9.51;75.40;97984.71;107101;1256;68121;-38
2024/04/17 10:28:10;;;;;;;5.60;2.70;;;;;;;9.55;75.12;97985.48;106938;1262;71473;-38
2024/04/17 10:30:42;;;;;;;4.50;2.90;;;;;;;9.61;74.94;97985.03;107104;1260;61279;-38
2024/04/17 10:33:29;;;;;;;3.70;2.40;;;;;;;9.64;74.45;97982.17;107065;1263;61128;-38
2024/04/17 10:35:57;;;;;;;7.50;2.30;;;;;;;9.67;74.18;97987.04;107148;1257;74842;-38
2024/04/17 10:38:25;;;;;;;5.50;2.40;;;;;;;9.73;73.69;97993.61;107068;1257;66768;-38
2024/04/17 10:41:01;;;;;;;5.40;2.50;;;;;;;9.76;73.17;97998.02;107189;1257;71571;-38
2024/04/17 10:43:30;;;;;;;5.60;2.80;;;;;;;9.71;73.06;98000.50;107098;1262;61250;-38
2024/04/17 10:46:08;;;;;;;3.50;2.10;;;;;;;9.71;73.74;98005.05;107163;1257;60496;-38
2024/04/17 10:48:51;;;;;;;4.10;2.50;;;;;;;9.73;73.77;98007.92;107126;1256;73772;-37
2024/04/17 10:51:20;;;;;;;5.70;2.30;;;;;;;9.70;73.36;98012.94;107137;1257;66770;-38
2024/04/17 10:53:48;;;;;;;3.20;1.50;;;;;;;9.73;73.27;98013.96;107119;1257;72833;-37
2024/04/17 10:56:15;;;;;;;3.40;2.00;;;;;;;9.80;74.00;98011.72;107111;1261;61266;-37
2024/04/17 10:58:43;;;;;;;2.90;1.80;;;;;;;9.84;74.21;98013.41;107101;1262;61108;-37
2024/04/17 11:01:16;;;;;;;4.10;1.90;;;;;;;9.86;73.29;98018.06;107110;1257;74724;-37
2024/04/17 11:03:44;;;;;;;3.60;2.40;;;;;;;9.78;72.25;98013.88;107088;1257;65978;-37
2024/04/17 11:06:12;;;;;;;3.70;2.00;;;;;;;9.75;72.68;98014.02;107099;1262;72745;-38
2024/04/17 11:08:45;;;;;;;9.40;1.90;;;;;;;9.71;72.29;98010.48;107035;1258;61809;-38
2024/04/17 11:11:25;;;;;;;4.90;2.00;;;;;;;9.70;70.64;98005.05;107058;1257;61436;-38
2024/04/17 11:13:53;;;;;;;3.10;1.40;;;;;;;9.64;70.77;98005.14;107135;1257;74640;-38
2024/04/17 11:16:21;;;;;;;5.50;2.00;;;;;;;9.60;71.31;98012.17;107070;1257;68060;-38
2024/04/17 11:18:48;;;;;;;5.20;2.20;;;;;;;9.54;71.43;98009.29;107076;1260;71543;-38
2024/04/17 11:21:16;;;;;;;3.70;1.80;;;;;;;9.58;71.92;98015.80;107005;1257;61777;-38
2024/04/17 11:23:44;;;;;;;3.00;1.40;;;;;;;9.64;72.27;98018.98;107080;1258;61847;-38
2024/04/17 11:26:12;;;;;;;3.60;2.00;;;;;;;9.72;71.53;98025.87;107102;1257;73826;-38
2024/04/17 11:28:40;;;;;;;4.80;1.80;;;;;;;9.74;71.45;98026.70;106959;1257;67787;-38
2024/04/17 11:31:09;;;;;;;2.70;1.80;;;;;;;9.75;71.33;98021.84;107144;1257;72822;-38
2024/04/17 11:33:40;;;;;;;3.00;1.80;;;;;;;9.76;71.40;98024.56;107217;1256;61346;-37
2024/04/17 11:36:09;;;;;;;4.70;2.00;;;;;;;9.75;71.23;98025.00;107162;1262;61221;-37
2024/04/17 11:38:36;;;;;;;4.80;1.60;;;;;;;9.73;70.91;98030.73;107221;1257;73432;-37